Airports

 

 

Airport Name Latest METAR Visual Conditions
Atlantic City Int. (ACY) KACY 240454Z AUTO 00000KT 10SM CLR 18/17 A3011 RMK AO2 SLP196 T01830167 402830161 PWINO TSNO $ VFR
Baltimore International Airport (BWI) KBWI 240454Z 26003KT 10SM FEW090 FEW120 17/14 A3013 RMK AO2 SLP200 T01720139 403170167 VFR
Washington National Airport (DCA) KDCA 240452Z 23005KT 10SM BKN250 23/13 A3014 RMK AO2 SLP206 T02280128 403060200 VFR
Dulles International Airport (IAD) KIAD 240452Z 00000KT 10SM SCT110 20/13 A3014 RMK AO2 SLP204 T02000133 402940161 VFR
Norfolk International Airport (ORF) KORF 240451Z AUTO 21004KT 10SM CLR 23/17 A3013 RMK AO2 SLP200 T02280172 403060194 TSNO VFR
Raleigh International Airport (RDU) KRDU 240451Z 14005KT 10SM SCT043 SCT250 23/18 A3013 RMK AO2 SLP197 T02330183 403060189 VFR
Richmond International Airport (RIC) KRIC 240454Z 00000KT 10SM BKN070 21/18 A3013 RMK AO2 SLP206 T02110183 403000183 VFR
Roanoke Regional Airport (ROA) KROA 240454Z 00000KT 10SM CLR 22/16 A3016 RMK AO2 SLP200 T02220156 403110172 VFR